sensor_id;sensor_type;location;lat;lon;timestamp;temperature;humidity
66928;DHT22;59882;45.624;11.698;2023-06-05T00:01:40;20.80;71.70
66928;DHT22;59882;45.624;11.698;2023-06-05T00:04:06;20.80;71.90
66928;DHT22;59882;45.624;11.698;2023-06-05T00:06:32;20.80;72.00
66928;DHT22;59882;45.624;11.698;2023-06-05T00:08:57;20.80;71.80
66928;DHT22;59882;45.624;11.698;2023-06-05T00:11:23;20.90;71.80
66928;DHT22;59882;45.624;11.698;2023-06-05T00:13:49;20.90;71.80
66928;DHT22;59882;45.624;11.698;2023-06-05T00:16:16;20.90;72.20
66928;DHT22;59882;45.624;11.698;2023-06-05T00:18:42;20.80;72.40
66928;DHT22;59882;45.624;11.698;2023-06-05T00:21:09;20.80;72.90
66928;DHT22;59882;45.624;11.698;2023-06-05T00:23:35;20.80;72.40
66928;DHT22;59882;45.624;11.698;2023-06-05T00:26:01;20.90;72.50
66928;DHT22;59882;45.624;11.698;2023-06-05T00:28:27;20.90;73.00
66928;DHT22;59882;45.624;11.698;2023-06-05T00:30:52;20.80;73.20
66928;DHT22;59882;45.624;11.698;2023-06-05T00:33:18;20.80;73.30
66928;DHT22;59882;45.624;11.698;2023-06-05T00:35:43;20.70;73.00
66928;DHT22;59882;45.624;11.698;2023-06-05T00:38:09;20.60;73.10
66928;DHT22;59882;45.624;11.698;2023-06-05T00:40:36;20.50;74.10
66928;DHT22;59882;45.624;11.698;2023-06-05T00:43:01;20.40;73.90
66928;DHT22;59882;45.624;11.698;2023-06-05T00:45:27;20.40;75.10
66928;DHT22;59882;45.624;11.698;2023-06-05T00:47:53;20.30;74.90
66928;DHT22;59882;45.624;11.698;2023-06-05T00:50:19;20.20;75.30
66928;DHT22;59882;45.624;11.698;2023-06-05T00:52:49;20.20;75.00
66928;DHT22;59882;45.624;11.698;2023-06-05T00:55:15;20.10;75.70
66928;DHT22;59882;45.624;11.698;2023-06-05T00:57:41;20.10;75.60
66928;DHT22;59882;45.624;11.698;2023-06-05T01:00:07;20.10;76.80
66928;DHT22;59882;45.624;11.698;2023-06-05T01:02:35;19.90;76.90
66928;DHT22;59882;45.624;11.698;2023-06-05T01:05:02;19.90;78.10
66928;DHT22;59882;45.624;11.698;2023-06-05T01:07:30;19.90;78.20
66928;DHT22;59882;45.624;11.698;2023-06-05T01:10:01;19.90;78.90
66928;DHT22;59882;45.624;11.698;2023-06-05T01:12:33;19.90;77.60
66928;DHT22;59882;45.624;11.698;2023-06-05T01:15:02;19.80;77.40
66928;DHT22;59882;45.624;11.698;2023-06-05T01:17:28;19.70;77.00
66928;DHT22;59882;45.624;11.698;2023-06-05T01:19:55;19.70;77.00
66928;DHT22;59882;45.624;11.698;2023-06-05T01:22:20;19.60;76.80
66928;DHT22;59882;45.624;11.698;2023-06-05T01:24:46;19.60;76.90
66928;DHT22;59882;45.624;11.698;2023-06-05T01:27:18;19.50;77.10
66928;DHT22;59882;45.624;11.698;2023-06-05T01:35:30;19.40;76.80
66928;DHT22;59882;45.624;11.698;2023-06-05T01:38:00;19.40;76.90
66928;DHT22;59882;45.624;11.698;2023-06-05T01:40:29;19.30;77.20
66928;DHT22;59882;45.624;11.698;2023-06-05T01:42:56;19.30;77.00
66928;DHT22;59882;45.624;11.698;2023-06-05T01:45:24;19.20;77.30
66928;DHT22;59882;45.624;11.698;2023-06-05T01:47:50;19.10;77.40
66928;DHT22;59882;45.624;11.698;2023-06-05T01:50:17;19.00;77.50
66928;DHT22;59882;45.624;11.698;2023-06-05T01:52:43;19.00;77.60
66928;DHT22;59882;45.624;11.698;2023-06-05T01:55:23;18.90;77.80
66928;DHT22;59882;45.624;11.698;2023-06-05T01:57:50;18.90;77.70
66928;DHT22;59882;45.624;11.698;2023-06-05T02:00:16;18.90;77.30
66928;DHT22;59882;45.624;11.698;2023-06-05T02:02:43;18.90;77.40
66928;DHT22;59882;45.624;11.698;2023-06-05T02:05:11;18.90;77.30
66928;DHT22;59882;45.624;11.698;2023-06-05T02:07:45;18.90;77.30
66928;DHT22;59882;45.624;11.698;2023-06-05T02:10:14;18.90;77.20
66928;DHT22;59882;45.624;11.698;2023-06-05T02:12:40;18.90;77.00
66928;DHT22;59882;45.624;11.698;2023-06-05T02:15:08;18.90;77.10
66928;DHT22;59882;45.624;11.698;2023-06-05T02:17:47;18.90;77.10
66928;DHT22;59882;45.624;11.698;2023-06-05T02:20:20;18.90;77.20
66928;DHT22;59882;45.624;11.698;2023-06-05T02:22:46;18.90;77.40
66928;DHT22;59882;45.624;11.698;2023-06-05T02:25:15;18.90;77.40
66928;DHT22;59882;45.624;11.698;2023-06-05T02:27:41;18.80;78.00
66928;DHT22;59882;45.624;11.698;2023-06-05T02:30:07;18.80;77.50
66928;DHT22;59882;45.624;11.698;2023-06-05T02:32:34;18.80;77.30
66928;DHT22;59882;45.624;11.698;2023-06-05T02:35:01;18.80;77.50
66928;DHT22;59882;45.624;11.698;2023-06-05T02:37:28;18.80;78.00
66928;DHT22;59882;45.624;11.698;2023-06-05T02:39:54;18.80;78.10
66928;DHT22;59882;45.624;11.698;2023-06-05T02:42:22;18.80;77.70
66928;DHT22;59882;45.624;11.698;2023-06-05T02:44:48;18.70;77.60
66928;DHT22;59882;45.624;11.698;2023-06-05T02:47:14;18.70;77.90
66928;DHT22;59882;45.624;11.698;2023-06-05T02:49:39;18.70;77.70
66928;DHT22;59882;45.624;11.698;2023-06-05T02:52:06;18.70;78.00
66928;DHT22;59882;45.624;11.698;2023-06-05T02:54:31;18.70;78.00
66928;DHT22;59882;45.624;11.698;2023-06-05T02:56:57;18.70;78.60
66928;DHT22;59882;45.624;11.698;2023-06-05T02:59:25;18.70;79.10
66928;DHT22;59882;45.624;11.698;2023-06-05T03:01:53;18.70;78.60
66928;DHT22;59882;45.624;11.698;2023-06-05T03:04:18;18.70;78.60
66928;DHT22;59882;45.624;11.698;2023-06-05T03:06:50;18.70;78.20
66928;DHT22;59882;45.624;11.698;2023-06-05T03:09:16;18.70;78.60
66928;DHT22;59882;45.624;11.698;2023-06-05T03:11:42;18.70;78.20
66928;DHT22;59882;45.624;11.698;2023-06-05T03:14:08;18.80;78.70
66928;DHT22;59882;45.624;11.698;2023-06-05T03:16:34;18.70;78.40
66928;DHT22;59882;45.624;11.698;2023-06-05T03:19:07;18.80;78.50
66928;DHT22;59882;45.624;11.698;2023-06-05T03:21:33;18.80;78.30
66928;DHT22;59882;45.624;11.698;2023-06-05T03:23:58;18.80;78.40
66928;DHT22;59882;45.624;11.698;2023-06-05T03:26:24;18.80;78.80
66928;DHT22;59882;45.624;11.698;2023-06-05T03:28:50;18.80;78.80
66928;DHT22;59882;45.624;11.698;2023-06-05T03:31:16;18.80;78.60
66928;DHT22;59882;45.624;11.698;2023-06-05T03:33:42;18.80;78.40
66928;DHT22;59882;45.624;11.698;2023-06-05T03:36:08;18.70;78.70
66928;DHT22;59882;45.624;11.698;2023-06-05T03:38:34;18.80;78.70
66928;DHT22;59882;45.624;11.698;2023-06-05T03:40:59;18.70;78.50
66928;DHT22;59882;45.624;11.698;2023-06-05T03:43:25;18.70;78.50
66928;DHT22;59882;45.624;11.698;2023-06-05T03:45:51;18.60;78.90
66928;DHT22;59882;45.624;11.698;2023-06-05T03:48:17;18.60;79.10
66928;DHT22;59882;45.624;11.698;2023-06-05T03:50:46;18.60;79.40
66928;DHT22;59882;45.624;11.698;2023-06-05T03:53:12;18.60;79.40
66928;DHT22;59882;45.624;11.698;2023-06-05T03:55:39;18.60;79.60
66928;DHT22;59882;45.624;11.698;2023-06-05T03:58:14;18.60;79.60
66928;DHT22;59882;45.624;11.698;2023-06-05T04:00:44;18.60;79.20
66928;DHT22;59882;45.624;11.698;2023-06-05T04:03:11;18.60;79.20
66928;DHT22;59882;45.624;11.698;2023-06-05T04:05:38;18.70;79.30
66928;DHT22;59882;45.624;11.698;2023-06-05T04:08:14;18.70;79.00
66928;DHT22;59882;45.624;11.698;2023-06-05T04:10:40;18.70;78.80
66928;DHT22;59882;45.624;11.698;2023-06-05T04:13:06;18.70;79.30
66928;DHT22;59882;45.624;11.698;2023-06-05T04:15:31;18.70;79.10
66928;DHT22;59882;45.624;11.698;2023-06-05T04:17:59;18.70;79.00
66928;DHT22;59882;45.624;11.698;2023-06-05T04:20:25;18.80;79.00
66928;DHT22;59882;45.624;11.698;2023-06-05T04:22:50;18.80;79.10
66928;DHT22;59882;45.624;11.698;2023-06-05T04:25:16;18.80;79.30
66928;DHT22;59882;45.624;11.698;2023-06-05T04:27:44;18.70;79.70
66928;DHT22;59882;45.624;11.698;2023-06-05T04:30:12;18.80;79.40
66928;DHT22;59882;45.624;11.698;2023-06-05T04:32:38;18.70;80.00
66928;DHT22;59882;45.624;11.698;2023-06-05T04:35:05;18.70;79.40
66928;DHT22;59882;45.624;11.698;2023-06-05T04:37:32;18.80;79.20
66928;DHT22;59882;45.624;11.698;2023-06-05T04:39:58;18.80;79.30
66928;DHT22;59882;45.624;11.698;2023-06-05T04:42:25;18.80;78.90
66928;DHT22;59882;45.624;11.698;2023-06-05T04:44:56;18.80;78.90
66928;DHT22;59882;45.624;11.698;2023-06-05T04:47:22;18.90;78.80
66928;DHT22;59882;45.624;11.698;2023-06-05T04:49:47;18.90;78.70
66928;DHT22;59882;45.624;11.698;2023-06-05T04:52:17;18.90;78.80
66928;DHT22;59882;45.624;11.698;2023-06-05T04:54:43;18.90;79.10
66928;DHT22;59882;45.624;11.698;2023-06-05T04:57:09;18.90;79.20
66928;DHT22;59882;45.624;11.698;2023-06-05T04:59:36;18.80;78.50
66928;DHT22;59882;45.624;11.698;2023-06-05T05:02:02;18.80;78.80
66928;DHT22;59882;45.624;11.698;2023-06-05T05:04:28;18.80;78.80
66928;DHT22;59882;45.624;11.698;2023-06-05T05:06:55;18.80;78.50
66928;DHT22;59882;45.624;11.698;2023-06-05T05:09:30;18.80;78.90
66928;DHT22;59882;45.624;11.698;2023-06-05T05:11:57;18.80;79.20
66928;DHT22;59882;45.624;11.698;2023-06-05T05:14:26;18.80;79.00
66928;DHT22;59882;45.624;11.698;2023-06-05T05:16:55;18.80;79.90
66928;DHT22;59882;45.624;11.698;2023-06-05T05:19:21;18.80;79.90
66928;DHT22;59882;45.624;11.698;2023-06-05T05:21:48;18.80;80.80
66928;DHT22;59882;45.624;11.698;2023-06-05T05:24:14;18.80;81.30
66928;DHT22;59882;45.624;11.698;2023-06-05T05:26:39;18.80;81.70
66928;DHT22;59882;45.624;11.698;2023-06-05T05:29:08;18.80;81.20
66928;DHT22;59882;45.624;11.698;2023-06-05T05:31:34;18.80;81.00
66928;DHT22;59882;45.624;11.698;2023-06-05T05:34:00;18.90;81.00
66928;DHT22;59882;45.624;11.698;2023-06-05T05:36:26;18.80;80.90
66928;DHT22;59882;45.624;11.698;2023-06-05T05:38:52;18.90;80.20
66928;DHT22;59882;45.624;11.698;2023-06-05T05:41:18;18.90;80.40
66928;DHT22;59882;45.624;11.698;2023-06-05T05:43:44;18.90;80.70
66928;DHT22;59882;45.624;11.698;2023-06-05T05:46:09;18.90;80.70
66928;DHT22;59882;45.624;11.698;2023-06-05T05:48:36;19.00;80.80
66928;DHT22;59882;45.624;11.698;2023-06-05T05:51:02;19.00;80.40
66928;DHT22;59882;45.624;11.698;2023-06-05T05:53:27;19.00;80.70
66928;DHT22;59882;45.624;11.698;2023-06-05T05:55:53;19.00;81.00
66928;DHT22;59882;45.624;11.698;2023-06-05T05:58:21;19.10;80.90
66928;DHT22;59882;45.624;11.698;2023-06-05T06:00:47;19.10;80.60
66928;DHT22;59882;45.624;11.698;2023-06-05T06:03:13;19.10;80.70
66928;DHT22;59882;45.624;11.698;2023-06-05T06:05:40;19.10;81.10
66928;DHT22;59882;45.624;11.698;2023-06-05T06:08:05;19.10;80.60
66928;DHT22;59882;45.624;11.698;2023-06-05T06:10:34;19.20;80.20
66928;DHT22;59882;45.624;11.698;2023-06-05T06:13:01;19.20;79.90
66928;DHT22;59882;45.624;11.698;2023-06-05T06:15:27;19.20;79.80
66928;DHT22;59882;45.624;11.698;2023-06-05T06:17:53;19.20;80.00
66928;DHT22;59882;45.624;11.698;2023-06-05T06:20:19;19.20;80.00
66928;DHT22;59882;45.624;11.698;2023-06-05T06:22:45;19.20;80.10
66928;DHT22;59882;45.624;11.698;2023-06-05T06:25:11;19.20;80.50
66928;DHT22;59882;45.624;11.698;2023-06-05T06:27:38;19.30;80.30
66928;DHT22;59882;45.624;11.698;2023-06-05T06:30:04;19.30;80.20
66928;DHT22;59882;45.624;11.698;2023-06-05T06:32:30;19.30;80.00
66928;DHT22;59882;45.624;11.698;2023-06-05T06:34:56;19.30;80.50
66928;DHT22;59882;45.624;11.698;2023-06-05T06:37:22;19.40;80.70
66928;DHT22;59882;45.624;11.698;2023-06-05T06:39:48;19.40;80.70
66928;DHT22;59882;45.624;11.698;2023-06-05T06:42:14;19.40;80.70
66928;DHT22;59882;45.624;11.698;2023-06-05T06:44:40;19.40;80.00
66928;DHT22;59882;45.624;11.698;2023-06-05T06:47:07;19.40;80.10
66928;DHT22;59882;45.624;11.698;2023-06-05T06:49:33;19.40;79.80
66928;DHT22;59882;45.624;11.698;2023-06-05T06:52:00;19.40;80.00
66928;DHT22;59882;45.624;11.698;2023-06-05T06:54:25;19.40;80.00
66928;DHT22;59882;45.624;11.698;2023-06-05T06:56:54;19.40;80.00
66928;DHT22;59882;45.624;11.698;2023-06-05T06:59:20;19.50;79.20
66928;DHT22;59882;45.624;11.698;2023-06-05T07:02:07;19.50;79.10
66928;DHT22;59882;45.624;11.698;2023-06-05T07:04:33;19.50;78.90
66928;DHT22;59882;45.624;11.698;2023-06-05T07:06:59;19.60;79.40
66928;DHT22;59882;45.624;11.698;2023-06-05T07:09:25;19.60;79.40
66928;DHT22;59882;45.624;11.698;2023-06-05T07:11:53;19.70;79.30
66928;DHT22;59882;45.624;11.698;2023-06-05T07:14:18;19.70;79.10
66928;DHT22;59882;45.624;11.698;2023-06-05T07:16:44;19.70;79.70
66928;DHT22;59882;45.624;11.698;2023-06-05T07:19:10;19.80;79.80
66928;DHT22;59882;45.624;11.698;2023-06-05T07:21:35;19.90;79.80
66928;DHT22;59882;45.624;11.698;2023-06-05T07:24:03;19.90;79.20
66928;DHT22;59882;45.624;11.698;2023-06-05T07:26:29;20.00;78.20
66928;DHT22;59882;45.624;11.698;2023-06-05T07:28:55;20.00;77.80
66928;DHT22;59882;45.624;11.698;2023-06-05T07:31:21;20.00;77.50
66928;DHT22;59882;45.624;11.698;2023-06-05T07:33:47;20.00;77.70
66928;DHT22;59882;45.624;11.698;2023-06-05T07:36:13;20.00;76.70
66928;DHT22;59882;45.624;11.698;2023-06-05T07:38:40;20.00;77.90
66928;DHT22;59882;45.624;11.698;2023-06-05T07:41:08;20.00;78.00
66928;DHT22;59882;45.624;11.698;2023-06-05T07:43:34;20.10;77.90
66928;DHT22;59882;45.624;11.698;2023-06-05T07:45:59;20.20;78.90
66928;DHT22;59882;45.624;11.698;2023-06-05T07:48:25;20.30;78.00
66928;DHT22;59882;45.624;11.698;2023-06-05T07:50:51;20.30;77.60
66928;DHT22;59882;45.624;11.698;2023-06-05T07:53:17;20.40;77.40
66928;DHT22;59882;45.624;11.698;2023-06-05T07:55:42;20.50;76.80
66928;DHT22;59882;45.624;11.698;2023-06-05T07:58:08;20.60;77.50
66928;DHT22;59882;45.624;11.698;2023-06-05T08:00:34;20.70;76.70
66928;DHT22;59882;45.624;11.698;2023-06-05T08:03:00;20.80;76.50
66928;DHT22;59882;45.624;11.698;2023-06-05T08:05:25;20.90;76.50
66928;DHT22;59882;45.624;11.698;2023-06-05T08:07:53;20.90;76.30
66928;DHT22;59882;45.624;11.698;2023-06-05T08:10:19;21.00;75.30
66928;DHT22;59882;45.624;11.698;2023-06-05T08:12:45;21.00;75.30
66928;DHT22;59882;45.624;11.698;2023-06-05T08:15:10;21.00;75.20
66928;DHT22;59882;45.624;11.698;2023-06-05T08:17:36;21.00;74.50
66928;DHT22;59882;45.624;11.698;2023-06-05T08:20:02;21.00;74.50
66928;DHT22;59882;45.624;11.698;2023-06-05T08:22:30;21.00;74.70
66928;DHT22;59882;45.624;11.698;2023-06-05T08:24:56;21.00;74.90
66928;DHT22;59882;45.624;11.698;2023-06-05T08:27:24;21.00;73.80
66928;DHT22;59882;45.624;11.698;2023-06-05T08:29:50;21.00;74.40
66928;DHT22;59882;45.624;11.698;2023-06-05T08:32:16;20.90;74.10
66928;DHT22;59882;45.624;11.698;2023-06-05T08:34:44;21.00;74.00
66928;DHT22;59882;45.624;11.698;2023-06-05T08:37:10;21.00;74.30
66928;DHT22;59882;45.624;11.698;2023-06-05T08:39:36;21.10;74.40
66928;DHT22;59882;45.624;11.698;2023-06-05T08:42:02;21.20;74.10
66928;DHT22;59882;45.624;11.698;2023-06-05T08:44:29;21.20;73.70
66928;DHT22;59882;45.624;11.698;2023-06-05T08:47:00;21.30;73.00
66928;DHT22;59882;45.624;11.698;2023-06-05T08:49:27;21.50;71.90
66928;DHT22;59882;45.624;11.698;2023-06-05T08:52:02;21.60;71.70
66928;DHT22;59882;45.624;11.698;2023-06-05T08:54:41;21.70;71.60
66928;DHT22;59882;45.624;11.698;2023-06-05T08:57:08;21.70;71.00
66928;DHT22;59882;45.624;11.698;2023-06-05T08:59:34;21.80;70.50
66928;DHT22;59882;45.624;11.698;2023-06-05T09:02:00;21.90;70.70
66928;DHT22;59882;45.624;11.698;2023-06-05T09:04:26;21.90;70.60
66928;DHT22;59882;45.624;11.698;2023-06-05T09:06:56;21.90;70.80
66928;DHT22;59882;45.624;11.698;2023-06-05T09:09:23;21.90;71.00
66928;DHT22;59882;45.624;11.698;2023-06-05T09:12:04;22.00;70.80
66928;DHT22;59882;45.624;11.698;2023-06-05T09:14:30;22.00;70.70
66928;DHT22;59882;45.624;11.698;2023-06-05T09:16:59;22.10;69.80
66928;DHT22;59882;45.624;11.698;2023-06-05T09:19:38;22.30;69.60
66928;DHT22;59882;45.624;11.698;2023-06-05T09:22:06;22.40;69.10
66928;DHT22;59882;45.624;11.698;2023-06-05T09:24:32;22.40;69.20
66928;DHT22;59882;45.624;11.698;2023-06-05T09:27:00;22.50;69.10
66928;DHT22;59882;45.624;11.698;2023-06-05T09:29:34;22.50;68.70
66928;DHT22;59882;45.624;11.698;2023-06-05T09:32:16;22.60;68.60
66928;DHT22;59882;45.624;11.698;2023-06-05T09:34:42;22.60;67.70
66928;DHT22;59882;45.624;11.698;2023-06-05T09:37:10;22.60;68.40
66928;DHT22;59882;45.624;11.698;2023-06-05T09:39:40;22.60;68.60
66928;DHT22;59882;45.624;11.698;2023-06-05T09:42:06;22.50;68.50
66928;DHT22;59882;45.624;11.698;2023-06-05T09:44:33;22.50;68.20
66928;DHT22;59882;45.624;11.698;2023-06-05T09:52:05;22.40;68.20
66928;DHT22;59882;45.624;11.698;2023-06-05T09:54:31;22.40;68.20
66928;DHT22;59882;45.624;11.698;2023-06-05T09:57:01;22.50;68.00
66928;DHT22;59882;45.624;11.698;2023-06-05T09:59:32;22.50;68.10
66928;DHT22;59882;45.624;11.698;2023-06-05T10:02:03;22.50;68.20
66928;DHT22;59882;45.624;11.698;2023-06-05T10:04:56;22.60;68.10
66928;DHT22;59882;45.624;11.698;2023-06-05T10:07:23;22.70;67.70
66928;DHT22;59882;45.624;11.698;2023-06-05T10:09:49;22.80;67.00
66928;DHT22;59882;45.624;11.698;2023-06-05T10:12:16;22.80;67.00
66928;DHT22;59882;45.624;11.698;2023-06-05T10:14:43;22.90;66.50
66928;DHT22;59882;45.624;11.698;2023-06-05T10:17:12;22.90;65.90
66928;DHT22;59882;45.624;11.698;2023-06-05T10:19:42;22.90;66.50
66928;DHT22;59882;45.624;11.698;2023-06-05T10:22:11;22.90;66.10
66928;DHT22;59882;45.624;11.698;2023-06-05T10:24:54;22.90;66.60
66928;DHT22;59882;45.624;11.698;2023-06-05T10:28:02;22.90;67.00
66928;DHT22;59882;45.624;11.698;2023-06-05T10:31:01;22.90;66.90
66928;DHT22;59882;45.624;11.698;2023-06-05T10:36:21;22.90;66.40
66928;DHT22;59882;45.624;11.698;2023-06-05T10:38:50;22.90;66.90
66928;DHT22;59882;45.624;11.698;2023-06-05T10:41:17;23.00;66.20
66928;DHT22;59882;45.624;11.698;2023-06-05T10:43:52;23.00;66.50
66928;DHT22;59882;45.624;11.698;2023-06-05T10:51:44;23.20;66.00
66928;DHT22;59882;45.624;11.698;2023-06-05T10:56:54;23.40;64.10
66928;DHT22;59882;45.624;11.698;2023-06-05T10:59:46;23.50;65.10
66928;DHT22;59882;45.624;11.698;2023-06-05T11:07:23;24.00;64.40
66928;DHT22;59882;45.624;11.698;2023-06-05T11:17:36;24.40;61.20
66928;DHT22;59882;45.624;11.698;2023-06-05T11:20:49;24.40;61.10
66928;DHT22;59882;45.624;11.698;2023-06-05T11:27:47;24.50;60.80
66928;DHT22;59882;45.624;11.698;2023-06-05T11:30:14;24.60;59.80
66928;DHT22;59882;45.624;11.698;2023-06-05T11:32:41;24.70;60.10
66928;DHT22;59882;45.624;11.698;2023-06-05T11:35:08;24.80;59.10
66928;DHT22;59882;45.624;11.698;2023-06-05T11:37:39;24.90;58.70
66928;DHT22;59882;45.624;11.698;2023-06-05T11:40:06;24.90;59.20
66928;DHT22;59882;45.624;11.698;2023-06-05T11:42:38;24.90;58.60
66928;DHT22;59882;45.624;11.698;2023-06-05T11:45:14;24.90;58.00
66928;DHT22;59882;45.624;11.698;2023-06-05T11:47:40;24.80;58.40
66928;DHT22;59882;45.624;11.698;2023-06-05T11:50:09;24.80;59.70
66928;DHT22;59882;45.624;11.698;2023-06-05T11:52:36;24.80;58.80
66928;DHT22;59882;45.624;11.698;2023-06-05T11:55:11;24.90;59.10
66928;DHT22;59882;45.624;11.698;2023-06-05T11:57:44;24.90;58.90
66928;DHT22;59882;45.624;11.698;2023-06-05T12:00:13;24.90;57.20
66928;DHT22;59882;45.624;11.698;2023-06-05T12:02:43;24.90;57.60
66928;DHT22;59882;45.624;11.698;2023-06-05T12:05:12;25.00;58.90
66928;DHT22;59882;45.624;11.698;2023-06-05T12:07:37;25.10;58.00
66928;DHT22;59882;45.624;11.698;2023-06-05T12:10:08;25.20;57.80
66928;DHT22;59882;45.624;11.698;2023-06-05T12:12:54;25.30;57.80
66928;DHT22;59882;45.624;11.698;2023-06-05T12:15:21;25.40;57.80
66928;DHT22;59882;45.624;11.698;2023-06-05T12:17:56;25.50;57.30
66928;DHT22;59882;45.624;11.698;2023-06-05T12:20:22;25.50;57.20
66928;DHT22;59882;45.624;11.698;2023-06-05T12:22:48;25.60;56.00
66928;DHT22;59882;45.624;11.698;2023-06-05T12:25:18;25.60;55.70
66928;DHT22;59882;45.624;11.698;2023-06-05T12:27:44;25.50;53.60
66928;DHT22;59882;45.624;11.698;2023-06-05T12:30:11;25.40;55.60
66928;DHT22;59882;45.624;11.698;2023-06-05T12:32:39;25.40;56.50
66928;DHT22;59882;45.624;11.698;2023-06-05T12:35:05;25.30;56.50
66928;DHT22;59882;45.624;11.698;2023-06-05T12:37:42;25.20;57.10
66928;DHT22;59882;45.624;11.698;2023-06-05T12:40:13;25.20;57.00
66928;DHT22;59882;45.624;11.698;2023-06-05T12:42:41;25.10;56.50
66928;DHT22;59882;45.624;11.698;2023-06-05T12:45:09;25.00;56.60
66928;DHT22;59882;45.624;11.698;2023-06-05T12:47:36;24.90;56.00
66928;DHT22;59882;45.624;11.698;2023-06-05T12:50:03;24.80;57.10
66928;DHT22;59882;45.624;11.698;2023-06-05T12:52:32;24.70;57.80
66928;DHT22;59882;45.624;11.698;2023-06-05T12:54:58;24.70;57.70
66928;DHT22;59882;45.624;11.698;2023-06-05T12:57:25;24.60;58.10
66928;DHT22;59882;45.624;11.698;2023-06-05T12:59:53;24.70;58.10
66928;DHT22;59882;45.624;11.698;2023-06-05T13:02:20;24.70;57.70
66928;DHT22;59882;45.624;11.698;2023-06-05T13:04:45;24.80;58.20
66928;DHT22;59882;45.624;11.698;2023-06-05T13:07:11;24.90;58.30
66928;DHT22;59882;45.624;11.698;2023-06-05T13:09:37;24.90;58.30
66928;DHT22;59882;45.624;11.698;2023-06-05T13:12:03;25.00;58.10
66928;DHT22;59882;45.624;11.698;2023-06-05T13:14:30;25.10;57.80
66928;DHT22;59882;45.624;11.698;2023-06-05T13:16:59;25.20;57.90
66928;DHT22;59882;45.624;11.698;2023-06-05T13:19:25;25.20;56.50
66928;DHT22;59882;45.624;11.698;2023-06-05T13:21:51;25.30;56.50
66928;DHT22;59882;45.624;11.698;2023-06-05T13:24:17;25.30;56.50
66928;DHT22;59882;45.624;11.698;2023-06-05T13:26:44;25.40;57.40
66928;DHT22;59882;45.624;11.698;2023-06-05T13:29:10;25.80;54.00
66928;DHT22;59882;45.624;11.698;2023-06-05T13:31:36;26.00;54.40
66928;DHT22;59882;45.624;11.698;2023-06-05T13:34:02;25.90;54.20
66928;DHT22;59882;45.624;11.698;2023-06-05T13:36:28;25.80;54.50
66928;DHT22;59882;45.624;11.698;2023-06-05T13:38:54;25.60;54.70
66928;DHT22;59882;45.624;11.698;2023-06-05T13:41:20;25.40;54.80
66928;DHT22;59882;45.624;11.698;2023-06-05T13:43:46;25.20;55.50
66928;DHT22;59882;45.624;11.698;2023-06-05T13:46:12;25.00;55.50
66928;DHT22;59882;45.624;11.698;2023-06-05T13:48:37;24.90;56.20
66928;DHT22;59882;45.624;11.698;2023-06-05T13:51:04;24.70;55.00
66928;DHT22;59882;45.624;11.698;2023-06-05T13:53:30;24.60;55.10
66928;DHT22;59882;45.624;11.698;2023-06-05T13:56:04;24.40;57.00
66928;DHT22;59882;45.624;11.698;2023-06-05T13:58:30;24.30;58.60
66928;DHT22;59882;45.624;11.698;2023-06-05T14:00:57;24.10;59.40
66928;DHT22;59882;45.624;11.698;2023-06-05T14:03:24;24.10;60.40
66928;DHT22;59882;45.624;11.698;2023-06-05T14:05:49;24.10;60.00
66928;DHT22;59882;45.624;11.698;2023-06-05T14:08:15;24.20;59.40
66928;DHT22;59882;45.624;11.698;2023-06-05T14:10:41;24.20;59.70
66928;DHT22;59882;45.624;11.698;2023-06-05T14:13:07;24.10;59.40
66928;DHT22;59882;45.624;11.698;2023-06-05T14:15:33;24.00;59.80
66928;DHT22;59882;45.624;11.698;2023-06-05T14:18:01;23.90;60.80
66928;DHT22;59882;45.624;11.698;2023-06-05T14:20:27;23.90;61.40
66928;DHT22;59882;45.624;11.698;2023-06-05T14:22:55;23.80;62.80
66928;DHT22;59882;45.624;11.698;2023-06-05T14:25:23;23.70;62.20
66928;DHT22;59882;45.624;11.698;2023-06-05T14:27:54;23.70;63.90
66928;DHT22;59882;45.624;11.698;2023-06-05T14:30:23;23.70;63.40
66928;DHT22;59882;45.624;11.698;2023-06-05T14:32:50;23.60;64.40
66928;DHT22;59882;45.624;11.698;2023-06-05T14:35:16;23.50;65.20
66928;DHT22;59882;45.624;11.698;2023-06-05T14:37:42;23.40;65.80
66928;DHT22;59882;45.624;11.698;2023-06-05T14:40:08;23.20;67.20
66928;DHT22;59882;45.624;11.698;2023-06-05T14:42:34;22.90;67.50
66928;DHT22;59882;45.624;11.698;2023-06-05T14:45:00;22.90;69.00
66928;DHT22;59882;45.624;11.698;2023-06-05T14:47:25;22.80;69.50
66928;DHT22;59882;45.624;11.698;2023-06-05T14:49:51;22.80;70.00
66928;DHT22;59882;45.624;11.698;2023-06-05T14:52:16;22.70;70.40
66928;DHT22;59882;45.624;11.698;2023-06-05T14:54:42;22.60;69.90
66928;DHT22;59882;45.624;11.698;2023-06-05T14:57:08;22.50;70.90
66928;DHT22;59882;45.624;11.698;2023-06-05T14:59:34;22.50;71.00
66928;DHT22;59882;45.624;11.698;2023-06-05T15:02:00;22.50;70.80
66928;DHT22;59882;45.624;11.698;2023-06-05T15:04:26;22.40;71.20
66928;DHT22;59882;45.624;11.698;2023-06-05T15:06:52;22.40;72.30
66928;DHT22;59882;45.624;11.698;2023-06-05T15:09:19;22.40;72.40
66928;DHT22;59882;45.624;11.698;2023-06-05T15:11:45;22.40;72.00
66928;DHT22;59882;45.624;11.698;2023-06-05T15:14:11;22.40;71.30
66928;DHT22;59882;45.624;11.698;2023-06-05T15:16:37;22.40;71.10
66928;DHT22;59882;45.624;11.698;2023-06-05T15:19:02;22.40;71.60
66928;DHT22;59882;45.624;11.698;2023-06-05T15:21:28;22.40;71.60
66928;DHT22;59882;45.624;11.698;2023-06-05T15:23:54;22.40;71.50
66928;DHT22;59882;45.624;11.698;2023-06-05T15:26:20;22.30;71.10
66928;DHT22;59882;45.624;11.698;2023-06-05T15:28:46;22.40;70.30
66928;DHT22;59882;45.624;11.698;2023-06-05T15:31:12;22.30;70.40
66928;DHT22;59882;45.624;11.698;2023-06-05T15:33:38;22.30;70.30
66928;DHT22;59882;45.624;11.698;2023-06-05T15:36:06;22.40;71.20
66928;DHT22;59882;45.624;11.698;2023-06-05T15:38:32;22.30;71.80
66928;DHT22;59882;45.624;11.698;2023-06-05T15:40:58;22.30;72.50
66928;DHT22;59882;45.624;11.698;2023-06-05T15:43:24;22.30;71.60
66928;DHT22;59882;45.624;11.698;2023-06-05T15:45:49;22.30;72.00
66928;DHT22;59882;45.624;11.698;2023-06-05T15:48:20;22.30;71.90
66928;DHT22;59882;45.624;11.698;2023-06-05T15:50:46;22.30;71.70
66928;DHT22;59882;45.624;11.698;2023-06-05T15:53:12;22.30;71.90
66928;DHT22;59882;45.624;11.698;2023-06-05T15:55:38;22.20;71.90
66928;DHT22;59882;45.624;11.698;2023-06-05T15:58:09;22.20;71.70